Overview Statistics Trail Chart Weather Telemetry Raw packets
 

This is the latest recevied packets stored in our database for station/object DH9JH-10. If no packets are shown the sender has not sent any packets the latest 24 hours.

If you compare the raw packets with similar data from other websites it may differ (especially the path), the reason is that we are not collecting packets from the same APRS-IS servers. Each APRS-IS server performes duplicate filtering, and which packet that is considered to be a duplicate may differ depending on which APRS-IS server you receive your data from.

1788703015: DH9JH-10>APRSMC,TCPIP*,qAR,DH7VG-12:T#332,998.3,40.1,0.0,1027.1,0.0,00000000

1788703015: DH9JH-10>APRSMC,TCPIP*,qAR,DH7VG-12:!4928.73N/00641.78E#/A=000856

1788701179: DH9JH-10>APRSMC,TCPIP*,qAR,DH7VG-12:T#331,998.6,39.3,0.0,1027.5,0.0,00000000

1788701179: DH9JH-10>APRSMC,TCPIP*,qAR,DH7VG-12::DH9JH-10 :UNIT.hPa,C deg,%,hPa,C deg,Y/N,O/N,O/N,O/N,O/N,O/N,O/N,O/N

1788701179: DH9JH-10>APRSMC,TCPIP*,qAR,DH7VG-12::DH9JH-10 :EQNS.0,1,0,0,1,0,0,1,0,0,1,0,0,1,0

1788701179: DH9JH-10>APRSMC,TCPIP*,qAR,DL4VCM-12:T#480,998.6,39.3,0.0,1027.5,0.0,00000000

1788701179: DH9JH-10>APRSMC,TCPIP*,qAR,DH7VG-12::DH9JH-10 :PARM.Press,Temp.in,Hum,QNH,Temp.out,track,-,-,-,-,-,-,-

1788701179: DH9JH-10>APRSMC,TCPIP*,qAR,DL4VCM-12:!4928.73N/00641.78E#/A=000856

1788701008: DH9JH-10>APRSMC,TCPIP*,qAR,DL4VAC-12:T#330,998.6,39.2,0.0,1027.5,0.0,00000000

1788701008: DH9JH-10>APRSMC,TCPIP*,qAR,DL4VAC-12:!4928.73N/00641.78E#/A=000856

1788699208: DH9JH-10>APRSMC,TCPIP*,qAR,DL4VCM-12:T#478,999.0,38.6,0.0,1027.9,0.0,00000000

1788699208: DH9JH-10>APRSMC,TCPIP*,qAR,DH7VG-12:T#329,999.0,38.6,0.0,1027.9,0.0,00000000

1788699208: DH9JH-10>APRSMC,TCPIP*,qAR,DH7VG-12:!4928.73N/00641.78E#/A=000856

1788697409: DH9JH-10>APRSMC,TCPIP*,qAR,DH7VG-12:T#328,999.5,37.5,0.0,1028.5,0.0,00000000

1788697409: DH9JH-10>APRSMC,TCPIP*,qAR,DH1VO-12:!4928.73N/00641.78E#/A=000856

1788697409: DH9JH-10>APRSMC,TCPIP*,qAR,DH1VO-12:T#477,999.5,37.5,0.0,1028.5,0.0,00000000

1788695608: DH9JH-10>APRSMC,TCPIP*,qAR,DH7VG-12:T#327,999.6,35.5,0.0,1028.9,0.0,00000000

1788695608: DH9JH-10>APRSMC,TCPIP*,qAR,DB9VE-12:T#476,999.6,35.5,0.0,1028.9,0.0,00000000

1788695608: DH9JH-10>APRSMC,TCPIP*,qAR,DB9VE-12:!4928.73N/00641.78E#/A=000856

1788692249: DH9JH-10>APRSMC,TCPIP*,qAR,DB9VE-12:T#475,1000.2,31.2,0.0,1029.9,0.0,00000000

1788692249: DH9JH-10>APRSMC,TCPIP*,qAR,DL4VAC-12:T#326,1000.2,31.2,0.0,1029.9,0.0,00000000

1788692249: DH9JH-10>APRSMC,TCPIP*,qAR,DL4VAC-12:!4928.73N/00641.78E#/A=000856